Monday, December 17, 2018, 5:50 AM EST
Back to Local

KDKK, Chautauqua County/dunkirk

Location: Dunkirk, NY, United States Lat: 42.5
Local Time: 5:50 AM EST (10:50 GMT) Lon: -79.283
Time Zone: US/Eastern Elev: 692 ft

Show me the last for .
Show Decoded

2018-12-17 05:30 METAR KDKK 171030Z AUTO 23014G22KT 8SM OVC014 03/01 A2982 RMK AO2 T00330006 =
2018-12-17 04:53 METAR KDKK 170953Z AUTO 24013G25KT 9SM OVC016 03/01 A2982 RMK AO2 SLP103
                 T00330006 =
2018-12-17 03:53 METAR KDKK 170853Z AUTO 23014KT 9SM OVC016 03/01 A2982 RMK AO2 SLP102 T00330006
                 58025 =
2018-12-17 02:53 METAR KDKK 170753Z AUTO 22011KT 9SM OVC016 03/01 A2986 RMK AO2 SLP119 T00280006
                 =
2018-12-17 02:27 METAR KDKK 170727Z AUTO 23010KT 9SM OVC015 03/01 A2986 RMK AO2 T00280006 =
2018-12-17 01:53 METAR KDKK 170653Z AUTO 22013G20KT 8SM OVC014 03/01 A2986 RMK AO2 SLP117
                 T00280006 =
2018-12-17 00:53 METAR KDKK 170553Z AUTO 23012G20KT 9SM OVC013 03/01 A2989 RMK AO2 SLP129
                 T00280006 10033 20011 56013 =
2018-12-17 00:25 METAR KDKK 170525Z AUTO 24014G21KT 10SM FEW006 OVC015 03/01 A2990 RMK AO2
                 T00280011 =
2018-12-17 00:16 METAR KDKK 170516Z AUTO 24013G21KT 10SM SCT006 OVC013 03/02 A2990 RMK AO2
                 T00280017 =
2018-12-17 00:06 METAR KDKK 170506Z AUTO 24010G20KT 7SM BKN006 BKN009 OVC015 03/02 A2991 RMK AO2
                 CIG 004V008 T00280022 =
2018-12-16 23:53 METAR KDKK 170453Z AUTO 24011G19KT 3SM BR OVC004 03/02 A2991 RMK AO2 CIG 004V008
                 SLP134 T00280022 400390006 =
2018-12-16 23:51 METAR KDKK 170451Z AUTO 24010G19KT 3SM BR OVC004 03/02 A2991 RMK AO2 =
2018-12-16 22:53 METAR KDKK 170353Z AUTO 23009KT 9SM OVC009 03/01 A2993 RMK AO2 SLP142 T00280011
                 =
2018-12-16 22:18 METAR KDKK 170318Z AUTO 22007KT 8SM OVC009 03/01 A2994 RMK AO2 T00280011 =
2018-12-16 21:53 METAR KDKK 170253Z AUTO 22006KT 8SM OVC010 03/01 A2994 RMK AO2 SLP146 T00280011
                 58005 =
2018-12-16 20:53 METAR KDKK 170153Z AUTO 22004KT 7SM OVC011 02/01 A2995 RMK AO2 SLP148 T00170006
                 =
2018-12-16 19:53 METAR KDKK 170053Z AUTO 21005KT 7SM BKN011 01/00 A2996 RMK AO2 SLP151 T00110000
                 =
2018-12-16 19:45 METAR KDKK 170045Z AUTO 21003KT 8SM BKN011 02/00 A2996 RMK AO2 T00170000 =
2018-12-16 18:53 METAR KDKK 162353Z AUTO 21003KT 8SM CLR 02/01 A2996 RMK AO2 SLP151 T00170006
                 10039 20017 50003 =
2018-12-16 18:24 METAR KDKK 162324Z AUTO 19004KT 9SM SCT017 BKN045 02/01 A2996 RMK AO2 T00220011
                 =
2018-12-16 18:17 METAR KDKK 162317Z AUTO 20003KT 9SM BKN017 OVC047 03/01 A2996 RMK AO2 T00280011
                 =
2018-12-16 17:53 METAR KDKK 162253Z AUTO 23004KT 9SM FEW014 OVC047 03/01 A2997 RMK AO2 SLP153
                 T00280011 =
2018-12-16 17:43 METAR KDKK 162243Z AUTO 18004KT 9SM SCT014 OVC045 03/02 A2996 RMK AO2 T00280017
                 =
2018-12-16 17:28 METAR KDKK 162228Z AUTO 00000KT 9SM BKN014 OVC043 03/02 A2997 RMK AO2 T00280017
                 =
2018-12-16 16:53 METAR KDKK 162153Z AUTO 00000KT 8SM BKN015 OVC055 03/01 A2996 RMK AO2 SLP153
                 T00330011 =
2018-12-16 16:42 METAR KDKK 162142Z AUTO 29003KT 8SM BKN015 BKN047 OVC055 03/01 A2996 RMK AO2
                 T00330011 =
2018-12-16 15:53 METAR KDKK 162053Z AUTO 33003KT 9SM BKN075 04/01 A2995 RMK AO2 SLP148 T00390011
                 55007 =
2018-12-16 14:53 METAR KDKK 161953Z AUTO 00000KT 9SM BKN041 OVC065 04/01 A2994 RMK AO2 SLP146
                 T00390011 =
2018-12-16 14:11 METAR KDKK 161911Z AUTO 05007KT 9SM SCT012 OVC065 03/01 A2995 RMK AO2 T00330011
                 =
2018-12-16 13:53 METAR KDKK 161853Z AUTO 04007KT 8SM OVC011 03/01 A2995 RMK AO2 SLP148 T00330011
                 =
2018-12-16 13:23 METAR KDKK 161823Z AUTO 36005KT 8SM OVC010 03/01 A2996 RMK AO2 T00330011 =
2018-12-16 12:53 METAR KDKK 161753Z AUTO 03007KT 7SM OVC008 03/01 A2997 RMK AO2 RAE02 SLP155
                 P0000 60000 T00280011 10028 20011 58013 =
2018-12-16 11:53 METAR KDKK 161653Z AUTO 03005KT 6SM -RA BR BKN007 OVC060 03/02 A3000 RMK AO2
                 RAB35UPB36E48 SLP165 P0000 T00280017 $ =
2018-12-16 11:19 METAR KDKK 161619Z AUTO 33007KT 6SM BR FEW008 SCT021 OVC060 02/01 A3000 RMK AO2
                 T00220011 $ =
2018-12-16 11:07 METAR KDKK 161607Z AUTO 32005KT 7SM SCT008 BKN021 OVC060 03/01 A3002 RMK AO2
                 T00280011 $ =
2018-12-16 10:53 METAR KDKK 161553Z AUTO 07003KT 9SM BKN008 OVC022 03/01 A3003 RMK AO2
                 RAB05E36UPB06E08 SLP175 P0000 T00280011 $ =
2018-12-16 10:33 METAR KDKK 161533Z AUTO 07006KT 6SM -RA BR BKN007 BKN060 OVC075 03/01 A3002 RMK
                 AO2 RAB05UPB06E08 P0000 T00280011 $ =
2018-12-16 10:15 METAR KDKK 161515Z AUTO 00000KT 7SM -RA FEW009 OVC070 02/01 A3001 RMK AO2
                 RAB05UPB06E08 P0000 T00220011 $ =
2018-12-16 09:53 METAR KDKK 161453Z AUTO 00000KT 7SM FEW050 SCT060 OVC070 02/01 A3001 RMK AO2
                 UPE16RAB1355E46 SLP168 P0000 60000 T00220011 58005 $ =
2018-12-16 08:53 METAR KDKK 161353Z AUTO 00000KT 7SM UP BKN070 OVC080 02/00 A3002 RMK AO2
                 RAB19E53UPB53 SLP173 P0000 T00170000 $ =
2018-12-16 07:53 METAR KDKK 161253Z AUTO 03004KT 10SM OVC095 01/M01 A3002 RMK AO2 SLP172
                 T00111006 $ =
2018-12-16 06:53 METAR KDKK 161153Z AUTO 00000KT 10SM OVC100 01/00 A3002 RMK AO2 SLP173 T00110000
                 10017 20006 58003 $ =
2018-12-16 05:53 METAR KDKK 161053Z AUTO 05004KT 10SM OVC100 01/M01 A3003 RMK AO2 SLP174
                 T00111011 $ =

Support USWX by starting your Amazon purchase here.